createdAt,value
2023-05-04T00:00:25.390Z,100756.53
2023-05-04T00:05:30.173Z,100754.44
2023-05-04T00:10:31.931Z,100749.03
2023-05-04T00:15:33.507Z,100750.31
2023-05-04T00:20:36.155Z,100740.25
2023-05-04T00:25:38.748Z,100739.19
2023-05-04T00:30:40.393Z,100725.06
2023-05-04T00:35:42.303Z,100721.06
2023-05-04T00:40:44.407Z,100721.09
2023-05-04T00:45:46.368Z,100720.03
2023-05-04T00:50:48.012Z,100711.00
2023-05-04T00:55:49.641Z,100701.94
2023-05-04T01:00:51.977Z,100710.13
2023-05-04T01:06:09.742Z,100709.25
2023-05-04T01:11:16.281Z,100708.56
2023-05-04T01:16:17.980Z,100712.22
2023-05-04T01:21:19.630Z,100705.41
2023-05-04T01:26:30.187Z,100704.75
2023-05-04T01:31:35.521Z,100703.63
2023-05-04T01:36:37.459Z,100714.41
2023-05-04T01:41:39.399Z,100713.06
2023-05-04T01:46:41.499Z,100722.28
2023-05-04T01:51:43.223Z,100714.25
2023-05-04T01:56:44.904Z,100718.44
2023-05-04T02:01:47.233Z,100719.03
2023-05-04T02:06:49.269Z,100729.25
2023-05-04T02:11:52.306Z,100726.56
2023-05-04T02:16:53.899Z,100728.19
2023-05-04T02:21:55.652Z,100722.28
2023-05-04T02:26:57.240Z,100714.66
2023-05-04T02:31:58.995Z,100712.28
2023-05-04T02:37:00.682Z,100713.34
2023-05-04T02:42:03.060Z,100710.88
2023-05-04T02:47:05.954Z,100710.03
2023-05-04T02:52:07.977Z,100709.44
2023-05-04T02:57:09.584Z,100715.16
2023-05-04T03:02:11.413Z,100714.38
2023-05-04T03:07:13.218Z,100714.38
2023-05-04T03:12:15.036Z,100709.63
2023-05-04T03:17:17.622Z,100704.91
2023-05-04T03:22:19.575Z,100704.50
2023-05-04T03:27:24.316Z,100699.84
2023-05-04T03:32:26.801Z,100703.16
2023-05-04T03:37:28.672Z,100688.72
2023-05-04T03:42:30.385Z,100676.78
2023-05-04T03:47:32.216Z,100677.84
2023-05-04T03:52:34.309Z,100678.03
2023-05-04T03:57:38.749Z,100672.13
2023-05-04T04:02:41.110Z,100669.22
2023-05-04T04:07:44.604Z,100668.75
2023-05-04T04:12:46.321Z,100673.41
2023-05-04T04:17:47.984Z,100680.88
2023-05-04T04:22:49.567Z,100684.09
2023-05-04T04:27:51.633Z,100677.66
2023-05-04T04:32:54.957Z,100678.94
2023-05-04T04:37:56.536Z,100684.63
2023-05-04T04:42:58.154Z,100669.63
2023-05-04T04:47:59.788Z,100677.84
2023-05-04T04:53:01.461Z,100678.09
2023-05-04T04:58:03.039Z,100683.22
2023-05-04T05:03:05.093Z,100683.59
2023-05-04T05:08:06.714Z,100687.03
2023-05-04T05:13:12.690Z,100696.59
2023-05-04T05:18:14.328Z,100686.16
2023-05-04T05:23:16.378Z,100689.78
2023-05-04T05:28:18.528Z,100689.34
2023-05-04T05:33:20.413Z,100691.81
2023-05-04T05:38:22.104Z,100689.03
2023-05-04T05:43:23.695Z,100694.84
2023-05-04T05:48:25.249Z,100694.34
2023-05-04T05:53:26.886Z,100692.56
2023-05-04T05:58:28.543Z,100680.03
2023-05-04T06:03:30.208Z,100674.88
2023-05-04T06:08:36.439Z,100676.03
2023-05-04T06:13:38.305Z,100685.09
2023-05-04T06:18:40.139Z,100672.81
2023-05-04T06:23:41.929Z,100665.66
2023-05-04T06:28:43.512Z,100667.59
2023-05-04T06:33:45.054Z,100658.13
2023-05-04T06:38:46.662Z,100655.81
2023-05-04T06:43:48.293Z,100648.91
2023-05-04T06:48:49.885Z,100651.81
2023-05-04T06:53:51.496Z,100643.44
2023-05-04T06:58:53.173Z,100636.13
2023-05-04T07:03:58.286Z,100637.44
2023-05-04T07:09:00.000Z,100627.78
2023-05-04T07:14:02.072Z,100632.97
2023-05-04T07:19:04.581Z,100614.13
2023-05-04T07:24:07.419Z,100613.50
2023-05-04T07:29:09.667Z,100596.09
2023-05-04T07:34:11.392Z,100600.31
2023-05-04T07:39:13.267Z,100596.44
2023-05-04T07:44:17.189Z,100599.69
2023-05-04T07:49:18.744Z,100585.03
2023-05-04T07:54:22.550Z,100576.44
2023-05-04T07:59:24.528Z,100576.25
2023-05-04T08:04:26.161Z,100566.84
2023-05-04T08:09:27.874Z,100577.38
2023-05-04T08:14:29.609Z,100561.25
2023-05-04T08:19:31.175Z,100541.81
2023-05-04T08:24:32.976Z,100556.41
2023-05-04T08:29:36.374Z,100535.50
2023-05-04T08:34:38.749Z,100540.56
2023-05-04T08:39:41.940Z,100538.75
2023-05-04T08:45:00.884Z,100524.38
2023-05-04T08:50:02.711Z,100539.88
2023-05-04T08:55:06.604Z,100544.41
2023-05-04T09:00:09.569Z,100533.94
2023-05-04T09:05:12.104Z,100535.09
2023-05-04T09:10:13.709Z,100526.50
2023-05-04T09:15:20.783Z,100547.88
2023-05-04T09:20:22.363Z,100524.53
2023-05-04T09:25:24.038Z,100532.28
2023-05-04T09:30:26.299Z,100521.13
2023-05-04T09:35:33.598Z,100526.16
2023-05-04T09:40:37.667Z,100522.53
2023-05-04T09:45:44.197Z,100517.81
2023-05-04T09:51:07.344Z,100505.00
2023-05-04T09:56:14.168Z,100520.47
2023-05-04T10:01:18.407Z,100528.16
2023-05-04T10:06:21.287Z,100510.91
2023-05-04T10:11:25.806Z,100508.28
2023-05-04T10:16:45.047Z,100497.88
2023-05-04T10:22:04.792Z,100475.16
2023-05-04T10:27:06.296Z,100465.06
2023-05-04T10:32:19.264Z,100460.78
2023-05-04T10:37:22.020Z,100446.72
2023-05-04T10:42:24.583Z,100443.72
2023-05-04T10:47:32.856Z,100433.66
2023-05-04T10:52:48.794Z,100431.84
2023-05-04T10:57:53.784Z,100425.59
2023-05-04T11:03:03.760Z,100419.34
2023-05-04T11:08:19.356Z,100425.03
2023-05-04T11:13:21.023Z,100413.66
2023-05-04T11:18:30.922Z,100403.00
2023-05-04T11:23:32.755Z,100387.38
2023-05-04T11:28:38.317Z,100385.84
2023-05-04T11:33:45.487Z,100408.75
2023-05-04T11:38:47.554Z,100392.56
2023-05-04T11:43:49.251Z,100369.03
2023-05-04T11:48:50.866Z,100382.31
2023-05-04T11:53:53.812Z,100342.03
2023-05-04T11:58:55.386Z,100366.22
2023-05-04T12:03:57.196Z,100356.44
2023-05-04T12:09:04.951Z,100348.47
2023-05-04T12:14:09.736Z,100347.47
2023-05-04T12:19:13.138Z,100328.59
2023-05-04T12:24:15.016Z,100315.03
2023-05-04T12:29:16.739Z,100321.25
2023-05-04T12:34:18.326Z,100297.06
2023-05-04T12:39:20.009Z,100308.13
2023-05-04T12:44:21.625Z,100300.81
2023-05-04T12:49:24.814Z,100299.88
2023-05-04T12:54:26.743Z,100284.84
2023-05-04T12:59:28.535Z,100275.22
2023-05-04T13:04:30.855Z,100254.06
2023-05-04T13:09:32.753Z,100252.50
2023-05-04T13:14:39.557Z,100235.22
2023-05-04T13:19:41.603Z,100238.00
2023-05-04T13:24:43.161Z,100237.13
2023-05-04T13:29:44.819Z,100216.63
2023-05-04T13:34:47.169Z,100208.69
2023-05-04T13:39:49.096Z,100207.56
2023-05-04T13:44:50.786Z,100189.69
2023-05-04T13:49:52.420Z,100197.44
2023-05-04T13:54:54.127Z,100187.22
2023-05-04T14:00:06.290Z,100167.50
2023-05-04T14:05:15.179Z,100157.72
2023-05-04T14:10:17.740Z,100168.31
2023-05-04T14:15:22.689Z,100140.88
2023-05-04T14:20:24.444Z,100131.97
2023-05-04T14:25:26.333Z,100121.44
2023-05-04T14:30:28.027Z,100120.78
2023-05-04T14:35:30.333Z,100121.28
2023-05-04T14:40:32.006Z,100143.53
2023-05-04T14:45:34.170Z,100128.59
2023-05-04T14:50:35.741Z,100118.22
2023-05-04T14:55:41.757Z,100132.63
2023-05-04T15:00:44.737Z,100126.72
2023-05-04T15:05:46.299Z,100132.69
2023-05-04T15:10:47.854Z,100130.56
2023-05-04T15:15:49.458Z,100139.94
2023-05-04T15:20:51.068Z,100141.16
2023-05-04T15:25:52.772Z,100118.41
2023-05-04T15:30:54.327Z,100136.03
2023-05-04T15:35:55.861Z,100130.34
2023-05-04T15:40:57.432Z,100105.16
2023-05-04T15:45:59.123Z,100108.75
2023-05-04T15:51:01.172Z,100108.38
2023-05-04T15:56:06.054Z,100108.69
2023-05-04T16:01:10.707Z,100106.91
2023-05-04T16:06:13.114Z,100106.78
2023-05-04T16:11:14.679Z,100088.19
2023-05-04T16:16:16.437Z,100099.50
2023-05-04T16:21:18.413Z,100092.91
2023-05-04T16:26:20.238Z,100092.72
2023-05-04T16:31:21.834Z,100085.13
2023-05-04T16:36:23.482Z,100075.16
2023-05-04T16:41:25.113Z,100075.94
2023-05-04T16:46:26.735Z,100073.53
2023-05-04T16:51:28.359Z,100066.56
2023-05-04T16:56:29.972Z,100062.22
2023-05-04T17:01:31.570Z,100066.91
2023-05-04T17:06:33.189Z,100073.06
2023-05-04T17:11:34.865Z,100068.31
2023-05-04T17:16:36.519Z,100081.66
2023-05-04T17:21:38.165Z,100081.34
2023-05-04T17:26:39.682Z,100079.94
2023-05-04T17:31:41.285Z,100084.72
2023-05-04T17:36:42.922Z,100085.97
2023-05-04T17:41:48.975Z,100086.94
2023-05-04T17:46:50.946Z,100089.19
2023-05-04T17:51:53.208Z,100102.63
2023-05-04T17:56:54.743Z,100101.34
2023-05-04T18:01:56.328Z,100108.16
2023-05-04T18:06:58.611Z,100106.03
2023-05-04T18:12:00.196Z,100114.81
2023-05-04T18:17:01.747Z,100123.44
2023-05-04T18:22:03.297Z,100133.97
2023-05-04T18:27:04.873Z,100137.03
2023-05-04T18:32:08.873Z,100143.44
2023-05-04T18:37:11.115Z,100151.47
2023-05-04T18:42:12.779Z,100155.97
2023-05-04T18:47:14.352Z,100169.53
2023-05-04T18:52:15.894Z,100175.91
2023-05-04T18:57:17.797Z,100176.28
2023-05-04T19:02:19.399Z,100187.09
2023-05-04T19:07:21.065Z,100200.88
2023-05-04T19:12:22.712Z,100209.84
2023-05-04T19:17:24.365Z,100213.28
2023-05-04T19:22:26.036Z,100218.03
2023-05-04T19:27:27.787Z,100218.59
2023-05-04T19:32:30.967Z,100226.84
2023-05-04T19:37:33.035Z,100217.91
2023-05-04T19:42:34.632Z,100230.59
2023-05-04T19:47:36.246Z,100227.50
2023-05-04T19:52:38.488Z,100227.44
2023-05-04T19:57:40.059Z,100230.47
2023-05-04T20:02:41.987Z,100240.31
2023-05-04T20:07:43.833Z,100240.22
2023-05-04T20:12:45.433Z,100235.16
2023-05-04T20:17:47.018Z,100244.44
2023-05-04T20:22:52.150Z,100232.69
2023-05-04T20:27:54.089Z,100229.03
2023-05-04T20:32:55.694Z,100225.91
2023-05-04T20:37:57.978Z,100227.94
2023-05-04T20:42:59.530Z,100230.81
2023-05-04T20:48:02.446Z,100226.69
2023-05-04T20:53:04.315Z,100226.19
2023-05-04T20:58:05.911Z,100233.25
2023-05-04T21:03:07.533Z,100236.72
2023-05-04T21:08:09.173Z,100226.06
2023-05-04T21:13:10.788Z,100220.84
2023-05-04T21:18:12.560Z,100235.53
2023-05-04T21:23:14.507Z,100231.09
2023-05-04T21:28:16.045Z,100237.50
2023-05-04T21:33:17.577Z,100237.88
2023-05-04T21:38:21.700Z,100235.78
2023-05-04T21:43:23.724Z,100240.72
2023-05-04T21:48:26.063Z,100240.66
2023-05-04T21:53:33.048Z,100240.97
2023-05-04T21:58:35.913Z,100240.63
2023-05-04T22:03:43.568Z,100253.22
2023-05-04T22:08:45.118Z,100255.25
2023-05-04T22:13:46.773Z,100254.59
2023-05-04T22:18:49.509Z,100261.44
2023-05-04T22:23:51.094Z,100263.38
2023-05-04T22:28:52.780Z,100260.16
2023-05-04T22:33:54.319Z,100266.38
2023-05-04T22:39:00.974Z,100279.78
2023-05-04T22:44:02.512Z,100281.41
2023-05-04T22:49:04.640Z,100273.31
2023-05-04T22:54:06.269Z,100274.34
2023-05-04T22:59:07.844Z,100282.06
2023-05-04T23:04:09.838Z,100287.53
2023-05-04T23:09:11.837Z,100286.91
2023-05-04T23:14:13.410Z,100291.72
2023-05-04T23:19:14.945Z,100296.81
2023-05-04T23:24:16.502Z,100299.22
2023-05-04T23:29:19.047Z,100290.75
2023-05-04T23:34:20.600Z,100298.72
2023-05-04T23:39:22.187Z,100298.06
2023-05-04T23:44:23.757Z,100308.09
2023-05-04T23:49:25.344Z,100299.97
2023-05-04T23:54:27.051Z,100303.31
2023-05-04T23:59:28.570Z,100314.16
